sensor_id;sensor_type;location;lat;lon;timestamp;temperature;humidity
5346;DHT22;2695;49.444;11.054;2023-07-24T00:00:38;21.70;92.80
5346;DHT22;2695;49.444;11.054;2023-07-24T00:03:07;21.80;91.30
5346;DHT22;2695;49.444;11.054;2023-07-24T00:05:35;21.90;90.90
5346;DHT22;2695;49.444;11.054;2023-07-24T00:08:04;21.90;91.80
5346;DHT22;2695;49.444;11.054;2023-07-24T00:10:33;22.00;93.70
5346;DHT22;2695;49.444;11.054;2023-07-24T00:13:01;22.10;97.00
5346;DHT22;2695;49.444;11.054;2023-07-24T00:15:30;22.00;99.40
5346;DHT22;2695;49.444;11.054;2023-07-24T00:17:58;21.60;98.70
5346;DHT22;2695;49.444;11.054;2023-07-24T00:20:26;21.40;99.00
5346;DHT22;2695;49.444;11.054;2023-07-24T00:22:54;21.10;99.90
5346;DHT22;2695;49.444;11.054;2023-07-24T00:25:23;20.80;99.90
5346;DHT22;2695;49.444;11.054;2023-07-24T00:27:51;20.50;99.90
5346;DHT22;2695;49.444;11.054;2023-07-24T00:30:19;20.10;99.90
5346;DHT22;2695;49.444;11.054;2023-07-24T00:32:47;19.60;99.90
5346;DHT22;2695;49.444;11.054;2023-07-24T00:35:15;19.30;99.90
5346;DHT22;2695;49.444;11.054;2023-07-24T00:37:43;19.10;99.90
5346;DHT22;2695;49.444;11.054;2023-07-24T00:40:11;19.10;99.90
5346;DHT22;2695;49.444;11.054;2023-07-24T00:42:41;19.00;99.90
5346;DHT22;2695;49.444;11.054;2023-07-24T00:45:13;19.10;99.90
5346;DHT22;2695;49.444;11.054;2023-07-24T00:47:42;19.10;99.90
5346;DHT22;2695;49.444;11.054;2023-07-24T00:50:11;19.00;99.90
5346;DHT22;2695;49.444;11.054;2023-07-24T00:52:40;19.00;99.90
5346;DHT22;2695;49.444;11.054;2023-07-24T00:55:09;19.20;99.90
5346;DHT22;2695;49.444;11.054;2023-07-24T00:57:38;19.10;99.90
5346;DHT22;2695;49.444;11.054;2023-07-24T01:00:09;19.10;99.90
5346;DHT22;2695;49.444;11.054;2023-07-24T01:02:37;19.00;99.90
5346;DHT22;2695;49.444;11.054;2023-07-24T01:05:06;18.50;99.90
5346;DHT22;2695;49.444;11.054;2023-07-24T01:07:35;18.20;99.90
5346;DHT22;2695;49.444;11.054;2023-07-24T01:10:03;17.90;99.90
5346;DHT22;2695;49.444;11.054;2023-07-24T01:12:36;17.70;99.90
5346;DHT22;2695;49.444;11.054;2023-07-24T01:15:10;17.40;99.90
5346;DHT22;2695;49.444;11.054;2023-07-24T01:17:48;17.20;99.90
5346;DHT22;2695;49.444;11.054;2023-07-24T01:20:19;17.20;99.90
5346;DHT22;2695;49.444;11.054;2023-07-24T01:22:58;17.20;99.90
5346;DHT22;2695;49.444;11.054;2023-07-24T01:25:33;17.10;99.90
5346;DHT22;2695;49.444;11.054;2023-07-24T01:28:08;17.00;99.90
5346;DHT22;2695;49.444;11.054;2023-07-24T01:30:35;17.00;99.90
5346;DHT22;2695;49.444;11.054;2023-07-24T01:33:03;16.90;99.90
5346;DHT22;2695;49.444;11.054;2023-07-24T01:35:32;17.00;99.90
5346;DHT22;2695;49.444;11.054;2023-07-24T01:38:00;17.00;99.90
5346;DHT22;2695;49.444;11.054;2023-07-24T01:40:29;17.00;99.90
5346;DHT22;2695;49.444;11.054;2023-07-24T01:42:57;17.10;99.90
5346;DHT22;2695;49.444;11.054;2023-07-24T01:45:27;17.00;99.90
5346;DHT22;2695;49.444;11.054;2023-07-24T01:47:55;17.00;99.90
5346;DHT22;2695;49.444;11.054;2023-07-24T01:50:24;17.00;99.90
5346;DHT22;2695;49.444;11.054;2023-07-24T01:52:51;17.10;99.90
5346;DHT22;2695;49.444;11.054;2023-07-24T01:55:19;17.20;99.90
5346;DHT22;2695;49.444;11.054;2023-07-24T01:57:47;17.40;99.90
5346;DHT22;2695;49.444;11.054;2023-07-24T02:00:15;17.60;99.90
5346;DHT22;2695;49.444;11.054;2023-07-24T02:02:44;17.80;99.90
5346;DHT22;2695;49.444;11.054;2023-07-24T02:05:13;17.90;99.90
5346;DHT22;2695;49.444;11.054;2023-07-24T02:07:40;18.00;99.90
5346;DHT22;2695;49.444;11.054;2023-07-24T02:10:09;18.00;99.90
5346;DHT22;2695;49.444;11.054;2023-07-24T02:12:37;18.00;99.90
5346;DHT22;2695;49.444;11.054;2023-07-24T02:15:06;17.90;99.90
5346;DHT22;2695;49.444;11.054;2023-07-24T02:17:34;17.80;99.90
5346;DHT22;2695;49.444;11.054;2023-07-24T02:20:04;17.70;99.90
5346;DHT22;2695;49.444;11.054;2023-07-24T02:22:33;17.60;99.90
5346;DHT22;2695;49.444;11.054;2023-07-24T02:25:00;17.50;99.90
5346;DHT22;2695;49.444;11.054;2023-07-24T02:27:29;17.60;99.90
5346;DHT22;2695;49.444;11.054;2023-07-24T02:29:58;17.70;99.90
5346;DHT22;2695;49.444;11.054;2023-07-24T02:32:26;17.70;99.90
5346;DHT22;2695;49.444;11.054;2023-07-24T02:34:54;17.70;99.90
5346;DHT22;2695;49.444;11.054;2023-07-24T02:37:23;17.70;99.90
5346;DHT22;2695;49.444;11.054;2023-07-24T02:39:51;17.70;99.90
5346;DHT22;2695;49.444;11.054;2023-07-24T02:42:19;17.70;99.90
5346;DHT22;2695;49.444;11.054;2023-07-24T02:44:47;17.70;99.90
5346;DHT22;2695;49.444;11.054;2023-07-24T02:47:15;17.70;99.90
5346;DHT22;2695;49.444;11.054;2023-07-24T02:49:43;17.80;99.90
5346;DHT22;2695;49.444;11.054;2023-07-24T02:52:11;17.80;99.90
5346;DHT22;2695;49.444;11.054;2023-07-24T02:54:41;17.90;99.90
5346;DHT22;2695;49.444;11.054;2023-07-24T02:57:08;18.00;99.90
5346;DHT22;2695;49.444;11.054;2023-07-24T02:59:37;18.00;99.90
5346;DHT22;2695;49.444;11.054;2023-07-24T03:02:05;18.10;99.90
5346;DHT22;2695;49.444;11.054;2023-07-24T03:04:33;18.10;99.90
5346;DHT22;2695;49.444;11.054;2023-07-24T03:07:01;18.20;99.90
5346;DHT22;2695;49.444;11.054;2023-07-24T03:09:29;18.20;99.90
5346;DHT22;2695;49.444;11.054;2023-07-24T03:11:58;18.20;99.90
5346;DHT22;2695;49.444;11.054;2023-07-24T03:14:26;18.30;99.90
5346;DHT22;2695;49.444;11.054;2023-07-24T03:16:54;18.30;99.90
5346;DHT22;2695;49.444;11.054;2023-07-24T03:19:22;18.40;99.90
5346;DHT22;2695;49.444;11.054;2023-07-24T03:21:50;18.50;99.90
5346;DHT22;2695;49.444;11.054;2023-07-24T03:24:21;18.50;99.90
5346;DHT22;2695;49.444;11.054;2023-07-24T03:26:49;18.50;99.90
5346;DHT22;2695;49.444;11.054;2023-07-24T03:29:18;18.50;99.90
5346;DHT22;2695;49.444;11.054;2023-07-24T03:31:46;18.50;99.90
5346;DHT22;2695;49.444;11.054;2023-07-24T03:34:14;18.60;99.90
5346;DHT22;2695;49.444;11.054;2023-07-24T03:36:42;18.50;99.90
5346;DHT22;2695;49.444;11.054;2023-07-24T03:39:10;18.50;99.90
5346;DHT22;2695;49.444;11.054;2023-07-24T03:41:39;18.50;99.90
5346;DHT22;2695;49.444;11.054;2023-07-24T03:44:07;18.50;99.90
5346;DHT22;2695;49.444;11.054;2023-07-24T03:46:37;18.60;99.90
5346;DHT22;2695;49.444;11.054;2023-07-24T03:49:05;18.50;99.90
5346;DHT22;2695;49.444;11.054;2023-07-24T03:51:33;18.50;99.90
5346;DHT22;2695;49.444;11.054;2023-07-24T03:54:01;18.60;99.90
5346;DHT22;2695;49.444;11.054;2023-07-24T03:56:28;18.50;99.90
5346;DHT22;2695;49.444;11.054;2023-07-24T03:58:57;18.60;99.90
5346;DHT22;2695;49.444;11.054;2023-07-24T04:01:25;18.50;99.90
5346;DHT22;2695;49.444;11.054;2023-07-24T04:03:54;18.40;99.90
5346;DHT22;2695;49.444;11.054;2023-07-24T04:06:23;18.40;99.90
5346;DHT22;2695;49.444;11.054;2023-07-24T04:08:51;18.30;99.90
5346;DHT22;2695;49.444;11.054;2023-07-24T04:11:19;18.20;99.90
5346;DHT22;2695;49.444;11.054;2023-07-24T04:13:47;18.10;99.90
5346;DHT22;2695;49.444;11.054;2023-07-24T04:16:15;18.10;99.90
5346;DHT22;2695;49.444;11.054;2023-07-24T04:18:43;18.20;99.90
5346;DHT22;2695;49.444;11.054;2023-07-24T04:21:12;18.20;99.90
5346;DHT22;2695;49.444;11.054;2023-07-24T04:23:40;18.30;99.90
5346;DHT22;2695;49.444;11.054;2023-07-24T04:26:08;18.40;99.90
5346;DHT22;2695;49.444;11.054;2023-07-24T04:28:36;18.60;99.90
5346;DHT22;2695;49.444;11.054;2023-07-24T04:31:04;18.80;99.90
5346;DHT22;2695;49.444;11.054;2023-07-24T04:33:32;18.80;99.90
5346;DHT22;2695;49.444;11.054;2023-07-24T04:36:01;19.00;99.90
5346;DHT22;2695;49.444;11.054;2023-07-24T04:38:30;19.10;99.90
5346;DHT22;2695;49.444;11.054;2023-07-24T04:41:00;19.70;99.90
5346;DHT22;2695;49.444;11.054;2023-07-24T04:43:28;20.50;99.90
5346;DHT22;2695;49.444;11.054;2023-07-24T04:45:57;21.30;99.90
5346;DHT22;2695;49.444;11.054;2023-07-24T04:48:25;22.20;99.90
5346;DHT22;2695;49.444;11.054;2023-07-24T04:50:54;22.60;99.90
5346;DHT22;2695;49.444;11.054;2023-07-24T04:53:23;22.70;99.90
5346;DHT22;2695;49.444;11.054;2023-07-24T04:56:00;23.20;99.90
5346;DHT22;2695;49.444;11.054;2023-07-24T04:58:28;24.00;99.90
5346;DHT22;2695;49.444;11.054;2023-07-24T05:00:56;24.30;99.90
5346;DHT22;2695;49.444;11.054;2023-07-24T05:03:24;24.80;99.90
5346;DHT22;2695;49.444;11.054;2023-07-24T05:05:54;24.80;99.90
5346;DHT22;2695;49.444;11.054;2023-07-24T05:08:23;24.40;99.90
5346;DHT22;2695;49.444;11.054;2023-07-24T05:10:54;24.50;99.90
5346;DHT22;2695;49.444;11.054;2023-07-24T05:13:24;25.10;99.90
5346;DHT22;2695;49.444;11.054;2023-07-24T05:15:52;25.20;99.90
5346;DHT22;2695;49.444;11.054;2023-07-24T05:18:21;25.00;99.90
5346;DHT22;2695;49.444;11.054;2023-07-24T05:20:49;24.30;99.90
5346;DHT22;2695;49.444;11.054;2023-07-24T05:23:19;23.70;99.90
5346;DHT22;2695;49.444;11.054;2023-07-24T05:25:47;23.00;99.90
5346;DHT22;2695;49.444;11.054;2023-07-24T05:28:15;22.50;99.90
5346;DHT22;2695;49.444;11.054;2023-07-24T05:30:44;22.00;99.90
5346;DHT22;2695;49.444;11.054;2023-07-24T05:33:12;22.40;99.90
5346;DHT22;2695;49.444;11.054;2023-07-24T05:35:40;23.90;99.90
5346;DHT22;2695;49.444;11.054;2023-07-24T05:38:10;25.50;99.90
5346;DHT22;2695;49.444;11.054;2023-07-24T05:40:38;27.00;99.90
5346;DHT22;2695;49.444;11.054;2023-07-24T05:43:06;28.30;99.90
5346;DHT22;2695;49.444;11.054;2023-07-24T05:45:34;29.50;99.10
5346;DHT22;2695;49.444;11.054;2023-07-24T05:48:04;30.60;95.40
5346;DHT22;2695;49.444;11.054;2023-07-24T05:50:38;31.60;92.40
5346;DHT22;2695;49.444;11.054;2023-07-24T05:53:05;32.60;86.60
5346;DHT22;2695;49.444;11.054;2023-07-24T05:55:33;33.30;78.00
5346;DHT22;2695;49.444;11.054;2023-07-24T05:58:02;33.60;73.60
5346;DHT22;2695;49.444;11.054;2023-07-24T06:00:30;33.00;70.50
5346;DHT22;2695;49.444;11.054;2023-07-24T06:02:58;32.10;73.00
5346;DHT22;2695;49.444;11.054;2023-07-24T06:05:27;31.10;74.80
5346;DHT22;2695;49.444;11.054;2023-07-24T06:07:55;30.20;77.00
5346;DHT22;2695;49.444;11.054;2023-07-24T06:10:23;29.30;81.00
5346;DHT22;2695;49.444;11.054;2023-07-24T06:12:51;28.90;82.80
5346;DHT22;2695;49.444;11.054;2023-07-24T06:15:19;28.10;84.00
5346;DHT22;2695;49.444;11.054;2023-07-24T06:17:47;27.40;86.80
5346;DHT22;2695;49.444;11.054;2023-07-24T06:20:20;26.70;90.10
5346;DHT22;2695;49.444;11.054;2023-07-24T06:22:50;26.50;91.20
5346;DHT22;2695;49.444;11.054;2023-07-24T06:25:18;26.40;91.60
5346;DHT22;2695;49.444;11.054;2023-07-24T06:27:46;26.30;91.40
5346;DHT22;2695;49.444;11.054;2023-07-24T06:30:14;26.10;92.80
5346;DHT22;2695;49.444;11.054;2023-07-24T06:32:42;26.00;93.80
5346;DHT22;2695;49.444;11.054;2023-07-24T06:35:11;26.20;94.50
5346;DHT22;2695;49.444;11.054;2023-07-24T06:37:39;26.60;94.50
5346;DHT22;2695;49.444;11.054;2023-07-24T06:40:09;27.10;93.70
5346;DHT22;2695;49.444;11.054;2023-07-24T06:42:38;27.50;92.80
5346;DHT22;2695;49.444;11.054;2023-07-24T06:45:07;27.70;92.30
5346;DHT22;2695;49.444;11.054;2023-07-24T06:47:35;28.10;90.50
5346;DHT22;2695;49.444;11.054;2023-07-24T06:50:07;28.40;90.20
5346;DHT22;2695;49.444;11.054;2023-07-24T06:52:35;29.10;89.10
5346;DHT22;2695;49.444;11.054;2023-07-24T06:55:04;30.00;87.10
5346;DHT22;2695;49.444;11.054;2023-07-24T06:57:33;30.90;83.90
5346;DHT22;2695;49.444;11.054;2023-07-24T07:00:01;31.70;80.40
5346;DHT22;2695;49.444;11.054;2023-07-24T07:02:29;32.30;75.60
5346;DHT22;2695;49.444;11.054;2023-07-24T07:04:57;31.90;74.10
5346;DHT22;2695;49.444;11.054;2023-07-24T07:07:27;30.80;75.10
5346;DHT22;2695;49.444;11.054;2023-07-24T07:09:56;29.70;79.40
5346;DHT22;2695;49.444;11.054;2023-07-24T07:12:24;29.30;82.10
5346;DHT22;2695;49.444;11.054;2023-07-24T07:14:53;29.90;80.30
5346;DHT22;2695;49.444;11.054;2023-07-24T07:17:21;31.00;77.60
5346;DHT22;2695;49.444;11.054;2023-07-24T07:19:49;32.00;74.50
5346;DHT22;2695;49.444;11.054;2023-07-24T07:22:16;32.10;72.00
5346;DHT22;2695;49.444;11.054;2023-07-24T07:24:44;31.60;72.10
5346;DHT22;2695;49.444;11.054;2023-07-24T07:27:13;31.20;73.50
5346;DHT22;2695;49.444;11.054;2023-07-24T07:29:43;30.70;73.90
5346;DHT22;2695;49.444;11.054;2023-07-24T07:32:13;30.00;76.20
5346;DHT22;2695;49.444;11.054;2023-07-24T07:34:41;29.00;80.00
5346;DHT22;2695;49.444;11.054;2023-07-24T07:37:09;28.70;82.40
5346;DHT22;2695;49.444;11.054;2023-07-24T07:39:37;28.60;84.20
5346;DHT22;2695;49.444;11.054;2023-07-24T07:42:05;28.80;83.80
5346;DHT22;2695;49.444;11.054;2023-07-24T07:44:44;28.80;84.00
5346;DHT22;2695;49.444;11.054;2023-07-24T07:47:13;28.50;85.70
5346;DHT22;2695;49.444;11.054;2023-07-24T07:49:41;28.40;85.00
5346;DHT22;2695;49.444;11.054;2023-07-24T07:52:09;28.40;86.40
5346;DHT22;2695;49.444;11.054;2023-07-24T07:54:37;28.00;87.00
5346;DHT22;2695;49.444;11.054;2023-07-24T07:57:05;27.90;87.80
5346;DHT22;2695;49.444;11.054;2023-07-24T07:59:35;27.60;89.40
5346;DHT22;2695;49.444;11.054;2023-07-24T08:02:04;27.20;90.20
5346;DHT22;2695;49.444;11.054;2023-07-24T08:04:36;27.10;90.90
5346;DHT22;2695;49.444;11.054;2023-07-24T08:07:04;27.00;91.40
5346;DHT22;2695;49.444;11.054;2023-07-24T08:09:32;26.60;92.00
5346;DHT22;2695;49.444;11.054;2023-07-24T08:12:00;26.10;93.40
5346;DHT22;2695;49.444;11.054;2023-07-24T08:14:29;25.60;94.40
5346;DHT22;2695;49.444;11.054;2023-07-24T08:16:57;25.40;95.60
5346;DHT22;2695;49.444;11.054;2023-07-24T08:19:28;25.30;96.70
5346;DHT22;2695;49.444;11.054;2023-07-24T08:21:58;25.30;97.10
5346;DHT22;2695;49.444;11.054;2023-07-24T08:24:28;25.30;97.60
5346;DHT22;2695;49.444;11.054;2023-07-24T08:26:59;25.30;98.20
5346;DHT22;2695;49.444;11.054;2023-07-24T08:29:28;25.30;98.30
5346;DHT22;2695;49.444;11.054;2023-07-24T08:32:00;25.50;98.60
5346;DHT22;2695;49.444;11.054;2023-07-24T08:34:28;25.50;98.70
5346;DHT22;2695;49.444;11.054;2023-07-24T08:36:58;25.20;99.50
5346;DHT22;2695;49.444;11.054;2023-07-24T08:39:26;25.00;99.90
5346;DHT22;2695;49.444;11.054;2023-07-24T08:41:56;24.90;99.90
5346;DHT22;2695;49.444;11.054;2023-07-24T08:44:25;25.00;99.90
5346;DHT22;2695;49.444;11.054;2023-07-24T08:46:58;25.10;99.90
5346;DHT22;2695;49.444;11.054;2023-07-24T08:49:27;25.30;99.90
5346;DHT22;2695;49.444;11.054;2023-07-24T08:52:01;25.70;99.90
5346;DHT22;2695;49.444;11.054;2023-07-24T08:54:31;26.20;99.90
5346;DHT22;2695;49.444;11.054;2023-07-24T08:57:01;26.40;99.70
5346;DHT22;2695;49.444;11.054;2023-07-24T08:59:29;26.30;99.40
5346;DHT22;2695;49.444;11.054;2023-07-24T09:01:57;26.30;99.40
5346;DHT22;2695;49.444;11.054;2023-07-24T09:04:26;26.30;99.50
5346;DHT22;2695;49.444;11.054;2023-07-24T09:06:56;26.70;98.90
5346;DHT22;2695;49.444;11.054;2023-07-24T09:09:29;27.20;97.90
5346;DHT22;2695;49.444;11.054;2023-07-24T09:11:57;27.30;97.30
5346;DHT22;2695;49.444;11.054;2023-07-24T09:14:27;27.00;97.80
5346;DHT22;2695;49.444;11.054;2023-07-24T09:17:02;26.80;97.50
5346;DHT22;2695;49.444;11.054;2023-07-24T09:19:31;26.60;98.30
5346;DHT22;2695;49.444;11.054;2023-07-24T09:22:09;26.70;97.80
5346;DHT22;2695;49.444;11.054;2023-07-24T09:24:49;27.00;97.60
5346;DHT22;2695;49.444;11.054;2023-07-24T09:27:17;27.30;96.90
5346;DHT22;2695;49.444;11.054;2023-07-24T09:29:46;27.60;96.30
5346;DHT22;2695;49.444;11.054;2023-07-24T09:32:21;27.90;95.50
5346;DHT22;2695;49.444;11.054;2023-07-24T09:34:49;28.60;93.90
5346;DHT22;2695;49.444;11.054;2023-07-24T09:37:26;28.90;92.60
5346;DHT22;2695;49.444;11.054;2023-07-24T09:39:55;28.70;92.80
5346;DHT22;2695;49.444;11.054;2023-07-24T09:42:30;28.30;93.00
5346;DHT22;2695;49.444;11.054;2023-07-24T09:44:58;28.20;93.20
5346;DHT22;2695;49.444;11.054;2023-07-24T09:47:26;28.80;92.70
5346;DHT22;2695;49.444;11.054;2023-07-24T09:50:14;30.00;90.70
5346;DHT22;2695;49.444;11.054;2023-07-24T09:52:43;30.50;88.90
5346;DHT22;2695;49.444;11.054;2023-07-24T09:55:18;30.50;87.70
5346;DHT22;2695;49.444;11.054;2023-07-24T09:57:48;30.30;87.50
5346;DHT22;2695;49.444;11.054;2023-07-24T10:00:19;30.10;87.90
5346;DHT22;2695;49.444;11.054;2023-07-24T10:02:48;29.80;87.30
5346;DHT22;2695;49.444;11.054;2023-07-24T10:05:17;29.80;88.10
5346;DHT22;2695;49.444;11.054;2023-07-24T10:07:46;30.00;85.80
5346;DHT22;2695;49.444;11.054;2023-07-24T10:10:16;29.90;85.50
5346;DHT22;2695;49.444;11.054;2023-07-24T10:12:45;29.80;85.30
5346;DHT22;2695;49.444;11.054;2023-07-24T10:15:24;29.50;85.80
5346;DHT22;2695;49.444;11.054;2023-07-24T10:18:01;29.10;87.40
5346;DHT22;2695;49.444;11.054;2023-07-24T10:20:34;28.60;88.10
5346;DHT22;2695;49.444;11.054;2023-07-24T10:23:03;28.20;89.40
5346;DHT22;2695;49.444;11.054;2023-07-24T10:25:33;28.00;90.30
5346;DHT22;2695;49.444;11.054;2023-07-24T10:28:03;27.80;90.80
5346;DHT22;2695;49.444;11.054;2023-07-24T10:30:34;27.60;91.40
5346;DHT22;2695;49.444;11.054;2023-07-24T10:33:08;27.40;91.30
5346;DHT22;2695;49.444;11.054;2023-07-24T10:35:38;27.30;92.00
5346;DHT22;2695;49.444;11.054;2023-07-24T10:38:07;27.20;92.40
5346;DHT22;2695;49.444;11.054;2023-07-24T10:40:36;27.10;92.70
5346;DHT22;2695;49.444;11.054;2023-07-24T10:43:08;27.00;93.30
5346;DHT22;2695;49.444;11.054;2023-07-24T10:45:40;26.90;93.80
5346;DHT22;2695;49.444;11.054;2023-07-24T10:48:09;26.90;94.00
5346;DHT22;2695;49.444;11.054;2023-07-24T10:50:39;26.80;94.40
5346;DHT22;2695;49.444;11.054;2023-07-24T10:53:08;26.70;96.50
5346;DHT22;2695;49.444;11.054;2023-07-24T10:55:38;26.50;97.50
5346;DHT22;2695;49.444;11.054;2023-07-24T10:58:07;26.30;98.40
5346;DHT22;2695;49.444;11.054;2023-07-24T11:00:36;26.30;99.90
5346;DHT22;2695;49.444;11.054;2023-07-24T11:03:04;26.20;99.90
5346;DHT22;2695;49.444;11.054;2023-07-24T11:05:33;26.10;99.90
5346;DHT22;2695;49.444;11.054;2023-07-24T11:08:09;26.10;99.90
5346;DHT22;2695;49.444;11.054;2023-07-24T11:10:46;26.00;99.90
5346;DHT22;2695;49.444;11.054;2023-07-24T11:13:15;25.90;99.90
5346;DHT22;2695;49.444;11.054;2023-07-24T11:15:44;25.80;99.90
5346;DHT22;2695;49.444;11.054;2023-07-24T11:18:14;25.60;99.90
5346;DHT22;2695;49.444;11.054;2023-07-24T11:20:45;25.50;99.90
5346;DHT22;2695;49.444;11.054;2023-07-24T11:23:14;25.40;99.90
5346;DHT22;2695;49.444;11.054;2023-07-24T11:25:42;25.30;99.90
5346;DHT22;2695;49.444;11.054;2023-07-24T11:28:15;25.40;99.90
5346;DHT22;2695;49.444;11.054;2023-07-24T11:30:43;25.40;99.90
5346;DHT22;2695;49.444;11.054;2023-07-24T11:33:15;25.40;99.90
5346;DHT22;2695;49.444;11.054;2023-07-24T11:35:45;25.50;99.90
5346;DHT22;2695;49.444;11.054;2023-07-24T11:38:16;25.50;99.90
5346;DHT22;2695;49.444;11.054;2023-07-24T11:40:46;25.60;99.90
5346;DHT22;2695;49.444;11.054;2023-07-24T11:43:20;25.70;99.90
5346;DHT22;2695;49.444;11.054;2023-07-24T11:45:49;25.70;99.90
5346;DHT22;2695;49.444;11.054;2023-07-24T11:48:21;25.80;99.90
5346;DHT22;2695;49.444;11.054;2023-07-24T11:50:52;25.90;99.90
5346;DHT22;2695;49.444;11.054;2023-07-24T11:53:22;26.00;99.90
5346;DHT22;2695;49.444;11.054;2023-07-24T11:55:51;26.00;99.90
5346;DHT22;2695;49.444;11.054;2023-07-24T11:58:36;25.90;99.90
5346;DHT22;2695;49.444;11.054;2023-07-24T12:01:07;25.80;99.90
5346;DHT22;2695;49.444;11.054;2023-07-24T12:03:38;25.80;99.90
5346;DHT22;2695;49.444;11.054;2023-07-24T12:06:27;25.70;99.90
5346;DHT22;2695;49.444;11.054;2023-07-24T12:09:10;25.40;99.90
5346;DHT22;2695;49.444;11.054;2023-07-24T12:11:48;25.20;99.90
5346;DHT22;2695;49.444;11.054;2023-07-24T12:14:21;25.20;99.90
5346;DHT22;2695;49.444;11.054;2023-07-24T12:17:01;25.40;99.90
5346;DHT22;2695;49.444;11.054;2023-07-24T12:19:38;25.50;99.90
5346;DHT22;2695;49.444;11.054;2023-07-24T12:22:08;25.60;99.90
5346;DHT22;2695;49.444;11.054;2023-07-24T12:24:40;25.60;99.90
5346;DHT22;2695;49.444;11.054;2023-07-24T12:27:08;25.70;99.90
5346;DHT22;2695;49.444;11.054;2023-07-24T12:30:00;25.80;99.90
5346;DHT22;2695;49.444;11.054;2023-07-24T12:32:31;26.00;99.90
5346;DHT22;2695;49.444;11.054;2023-07-24T12:35:00;26.00;99.90
5346;DHT22;2695;49.444;11.054;2023-07-24T12:37:31;26.10;99.70
5346;DHT22;2695;49.444;11.054;2023-07-24T12:40:07;26.00;99.40
5346;DHT22;2695;49.444;11.054;2023-07-24T12:42:37;25.80;99.50
5346;DHT22;2695;49.444;11.054;2023-07-24T12:45:08;25.70;99.50
5346;DHT22;2695;49.444;11.054;2023-07-24T12:47:36;25.50;99.90
5346;DHT22;2695;49.444;11.054;2023-07-24T12:50:05;25.30;99.90
5346;DHT22;2695;49.444;11.054;2023-07-24T12:52:34;25.10;99.90
5346;DHT22;2695;49.444;11.054;2023-07-24T12:55:04;24.80;99.90
5346;DHT22;2695;49.444;11.054;2023-07-24T12:57:32;24.70;99.90
5346;DHT22;2695;49.444;11.054;2023-07-24T13:00:00;24.60;99.90
5346;DHT22;2695;49.444;11.054;2023-07-24T13:02:29;24.60;99.90
5346;DHT22;2695;49.444;11.054;2023-07-24T13:04:59;24.40;99.90
5346;DHT22;2695;49.444;11.054;2023-07-24T13:07:27;24.10;99.90
5346;DHT22;2695;49.444;11.054;2023-07-24T13:09:56;24.00;99.90
5346;DHT22;2695;49.444;11.054;2023-07-24T13:12:48;24.20;99.90
5346;DHT22;2695;49.444;11.054;2023-07-24T13:15:38;24.50;99.90
5346;DHT22;2695;49.444;11.054;2023-07-24T13:18:22;24.80;99.90
5346;DHT22;2695;49.444;11.054;2023-07-24T13:21:00;25.20;99.90
5346;DHT22;2695;49.444;11.054;2023-07-24T13:23:29;25.70;99.90
5346;DHT22;2695;49.444;11.054;2023-07-24T13:25:57;25.80;99.90
5346;DHT22;2695;49.444;11.054;2023-07-24T13:28:25;26.10;99.90
5346;DHT22;2695;49.444;11.054;2023-07-24T13:30:54;26.00;99.90
5346;DHT22;2695;49.444;11.054;2023-07-24T13:33:27;26.20;99.90
5346;DHT22;2695;49.444;11.054;2023-07-24T13:35:55;26.30;99.90
5346;DHT22;2695;49.444;11.054;2023-07-24T13:38:23;26.50;99.90
5346;DHT22;2695;49.444;11.054;2023-07-24T13:40:51;26.40;99.70
5346;DHT22;2695;49.444;11.054;2023-07-24T13:43:19;26.40;99.90
5346;DHT22;2695;49.444;11.054;2023-07-24T13:45:47;26.40;99.60
5346;DHT22;2695;49.444;11.054;2023-07-24T13:48:15;26.40;99.70
5346;DHT22;2695;49.444;11.054;2023-07-24T13:50:44;26.40;99.70
5346;DHT22;2695;49.444;11.054;2023-07-24T13:59:22;25.70;99.90
5346;DHT22;2695;49.444;11.054;2023-07-24T14:01:56;25.80;99.90
5346;DHT22;2695;49.444;11.054;2023-07-24T14:04:25;25.60;99.90
5346;DHT22;2695;49.444;11.054;2023-07-24T14:06:55;25.60;99.90
5346;DHT22;2695;49.444;11.054;2023-07-24T14:09:29;25.60;99.90
5346;DHT22;2695;49.444;11.054;2023-07-24T14:12:06;25.40;99.90
5346;DHT22;2695;49.444;11.054;2023-07-24T14:14:40;25.30;99.90
5346;DHT22;2695;49.444;11.054;2023-07-24T14:17:18;25.30;99.90
5346;DHT22;2695;49.444;11.054;2023-07-24T14:19:50;25.10;99.90
5346;DHT22;2695;49.444;11.054;2023-07-24T14:22:26;25.00;99.90
5346;DHT22;2695;49.444;11.054;2023-07-24T14:24:55;24.90;99.90
5346;DHT22;2695;49.444;11.054;2023-07-24T14:27:23;25.00;99.90
5346;DHT22;2695;49.444;11.054;2023-07-24T14:29:55;25.20;99.90
5346;DHT22;2695;49.444;11.054;2023-07-24T14:32:26;25.20;99.90
5346;DHT22;2695;49.444;11.054;2023-07-24T14:34:58;25.20;99.90
5346;DHT22;2695;49.444;11.054;2023-07-24T14:37:28;25.10;99.90
5346;DHT22;2695;49.444;11.054;2023-07-24T14:39:58;25.10;99.90
5346;DHT22;2695;49.444;11.054;2023-07-24T14:46:16;25.20;99.90
5346;DHT22;2695;49.444;11.054;2023-07-24T14:49:49;25.30;99.90
5346;DHT22;2695;49.444;11.054;2023-07-24T14:53:02;25.40;99.90
5346;DHT22;2695;49.444;11.054;2023-07-24T14:55:56;25.40;99.90
5346;DHT22;2695;49.444;11.054;2023-07-24T15:02:51;25.60;99.70
5346;DHT22;2695;49.444;11.054;2023-07-24T15:05:26;25.60;99.20
5346;DHT22;2695;49.444;11.054;2023-07-24T15:12:00;25.70;98.30
5346;DHT22;2695;49.444;11.054;2023-07-24T15:15:38;25.70;97.90
5346;DHT22;2695;49.444;11.054;2023-07-24T15:18:05;25.60;97.30
5346;DHT22;2695;49.444;11.054;2023-07-24T15:29:04;25.30;97.40
5346;DHT22;2695;49.444;11.054;2023-07-24T15:31:32;25.40;97.10
5346;DHT22;2695;49.444;11.054;2023-07-24T15:34:03;25.50;96.80
5346;DHT22;2695;49.444;11.054;2023-07-24T15:36:37;25.60;96.50
5346;DHT22;2695;49.444;11.054;2023-07-24T15:39:06;25.60;96.60
5346;DHT22;2695;49.444;11.054;2023-07-24T15:41:34;25.40;96.50
5346;DHT22;2695;49.444;11.054;2023-07-24T15:44:03;25.40;96.60
5346;DHT22;2695;49.444;11.054;2023-07-24T15:55:23;25.50;97.00
5346;DHT22;2695;49.444;11.054;2023-07-24T16:10:26;25.20;98.00
5346;DHT22;2695;49.444;11.054;2023-07-24T16:17:59;25.00;99.30
5346;DHT22;2695;49.444;11.054;2023-07-24T16:28:32;24.90;99.90
5346;DHT22;2695;49.444;11.054;2023-07-24T16:31:00;24.80;99.90
5346;DHT22;2695;49.444;11.054;2023-07-24T16:33:28;24.80;99.90
5346;DHT22;2695;49.444;11.054;2023-07-24T16:35:57;24.80;99.90
5346;DHT22;2695;49.444;11.054;2023-07-24T16:38:25;24.80;99.90
5346;DHT22;2695;49.444;11.054;2023-07-24T16:40:53;24.80;99.90
5346;DHT22;2695;49.444;11.054;2023-07-24T16:43:21;24.90;99.90
5346;DHT22;2695;49.444;11.054;2023-07-24T16:45:51;25.00;99.90
5346;DHT22;2695;49.444;11.054;2023-07-24T16:48:22;25.10;99.90
5346;DHT22;2695;49.444;11.054;2023-07-24T16:50:50;25.20;99.90
5346;DHT22;2695;49.444;11.054;2023-07-24T16:53:18;25.40;99.90
5346;DHT22;2695;49.444;11.054;2023-07-24T16:55:46;25.50;99.90
5346;DHT22;2695;49.444;11.054;2023-07-24T16:58:14;25.50;99.90
5346;DHT22;2695;49.444;11.054;2023-07-24T17:00:42;25.40;99.90
5346;DHT22;2695;49.444;11.054;2023-07-24T17:03:11;25.40;99.90
5346;DHT22;2695;49.444;11.054;2023-07-24T17:05:40;25.20;99.90